Odysseus — VJN4590 — position and weather

sailwx.info

Track history (hours):
 
Tides and Currents Weather Stations Pressure Air Temp Water Temp Dewpoint Dewpoint Depression Visibility Wind Speed Wind Dir Waves Ship Positions

Odysseus

Last reported at 2017-Oct-08 03:08 UTC. Time now 2017-Nov-23 05:37 UTC.
Position S 38°17' E 148°17'.
Warning: this ship's position is 46 days out of date.

Length 12 m.

Type: Sailing vessel. MMSI: 503010470.

Date/timePositionNaut miles runAvg speedWind from/ knotsBaromVisibWave heightAir tempDewpointWater temp
2017-Oct-08 03:08S 38°17' E 148°17'1 5.9
2017-Oct-08 02:59S 38°17' E 148°18'3 5.9
2017-Oct-08 02:30S 38°16' E 148°21'3 5.9
2017-Oct-08 01:56S 38°14' E 148°25'3 6.3
2017-Oct-08 01:29S 38°11' E 148°27'5 6.2
2017-Oct-08 00:42S 38°08' E 148°32'1 6.0
2017-Oct-08 00:30S 38°08' E 148°33'4 5.7
2017-Oct-07 23:47S 38°05' E 148°37'2 6.4
2017-Oct-07 23:30S 38°04' E 148°39'3 6.3
2017-Oct-07 23:00S 38°02' E 148°42'4 6.0
2017-Oct-07 22:24S 37°60' E 148°46'2 5.5
2017-Oct-07 22:00S 37°59' E 148°48'4 6.6
2017-Oct-07 21:24S 37°57' E 148°53'  
2017-Oct-01 09:46S 32°58' E 152°03'2 6.3
2017-Oct-01 09:30S 32°57' E 152°04'3 6.3
2017-Oct-01 09:01S 32°54' E 152°06'3 6.2
2017-Oct-01 08:31S 32°51' E 152°08'3 6.1
2017-Oct-01 08:01S 32°49' E 152°10'3 6.0
2017-Oct-01 07:30S 32°46' E 152°12'3 5.6
2017-Oct-01 07:01S 32°44' E 152°13'2 4.9
2017-Oct-01 06:30S 32°42' E 152°10'1 2.7
2017-Oct-01 06:00S 32°43' E 152°09'0 0.0
2017-Oct-01 05:30S 32°43' E 152°09'0 0.0
2017-Oct-01 05:00S 32°43' E 152°09'0 0.0
2017-Oct-01 04:30S 32°43' E 152°09'0 0.0
2017-Oct-01 04:00S 32°43' E 152°09'0 0.1
2017-Oct-01 03:30S 32°43' E 152°09'0 0.1
2017-Oct-01 03:00S 32°43' E 152°09'0 0.0
2017-Sep-30 00:55S 32°43' E 152°09'0 0.0
2017-Sep-30 00:28S 32°43' E 152°09'0 0.0
2017-Sep-29 23:58S 32°43' E 152°09'0 0.0
2017-Sep-29 23:28S 32°43' E 152°09'0 0.0
2017-Sep-29 22:58S 32°43' E 152°09'0 0.1
2017-Sep-29 22:28S 32°43' E 152°09'0 0.1
2017-Sep-29 21:58S 32°43' E 152°09'0 0.0
2017-Sep-29 21:28S 32°43' E 152°09'0 0.0
2017-Sep-29 20:58S 32°43' E 152°09'1 1.9
2017-Sep-29 20:30S 32°43' E 152°09'2 3.5
2017-Sep-29 20:00S 32°42' E 152°12'2 4.1
2017-Sep-29 19:30S 32°43' E 152°14'2 4.8
2017-Sep-29 19:00S 32°42' E 152°16'3 5.3
2017-Sep-29 18:30S 32°40' E 152°18'3 5.4
2017-Sep-29 18:00S 32°38' E 152°21'3 5.6
2017-Sep-29 17:30S 32°36' E 152°23'2 4.9
2017-Sep-29 17:00S 32°34' E 152°25'2 3.5
2017-Sep-29 16:30S 32°33' E 152°26'2 4.4
2017-Sep-29 16:00S 32°32' E 152°28'3 4.9
2017-Sep-29 15:30S 32°30' E 152°30'  
Track history (hours):
 
Tides and Currents Weather Stations Pressure Air Temp Water Temp Dewpoint Dewpoint Depression Visibility Wind Speed Wind Dir Waves Ship Positions

Odysseus

Last reported at 2017-Oct-08 03:08 UTC. Time now 2017-Nov-23 05:37 UTC.
Position S 38°17' E 148°17'.
Warning: this ship's position is 46 days out of date.

Length 12 m.

Type: Sailing vessel. MMSI: 503010470.

Date/timePositionNaut miles runAvg speedWind from/ knotsBaromVisibWave heightAir tempDewpointWater temp
2017-Oct-08 03:08S 38°17' E 148°17'1 5.9
2017-Oct-08 02:59S 38°17' E 148°18'3 5.9
2017-Oct-08 02:30S 38°16' E 148°21'3 5.9
2017-Oct-08 01:56S 38°14' E 148°25'3 6.3
2017-Oct-08 01:29S 38°11' E 148°27'5 6.2
2017-Oct-08 00:42S 38°08' E 148°32'1 6.0
2017-Oct-08 00:30S 38°08' E 148°33'4 5.7
2017-Oct-07 23:47S 38°05' E 148°37'2 6.4
2017-Oct-07 23:30S 38°04' E 148°39'3 6.3
2017-Oct-07 23:00S 38°02' E 148°42'4 6.0
2017-Oct-07 22:24S 37°60' E 148°46'2 5.5
2017-Oct-07 22:00S 37°59' E 148°48'4 6.6
2017-Oct-07 21:24S 37°57' E 148°53'  
2017-Oct-01 09:46S 32°58' E 152°03'2 6.3
2017-Oct-01 09:30S 32°57' E 152°04'3 6.3
2017-Oct-01 09:01S 32°54' E 152°06'3 6.2
2017-Oct-01 08:31S 32°51' E 152°08'3 6.1
2017-Oct-01 08:01S 32°49' E 152°10'3 6.0
2017-Oct-01 07:30S 32°46' E 152°12'3 5.6
2017-Oct-01 07:01S 32°44' E 152°13'2 4.9
2017-Oct-01 06:30S 32°42' E 152°10'1 2.7
2017-Oct-01 06:00S 32°43' E 152°09'0 0.0
2017-Oct-01 05:30S 32°43' E 152°09'0 0.0
2017-Oct-01 05:00S 32°43' E 152°09'0 0.0
2017-Oct-01 04:30S 32°43' E 152°09'0 0.0
2017-Oct-01 04:00S 32°43' E 152°09'0 0.1
2017-Oct-01 03:30S 32°43' E 152°09'0 0.1
2017-Oct-01 03:00S 32°43' E 152°09'0 0.0
2017-Sep-30 00:55S 32°43' E 152°09'0 0.0
2017-Sep-30 00:28S 32°43' E 152°09'0 0.0
2017-Sep-29 23:58S 32°43' E 152°09'0 0.0
2017-Sep-29 23:28S 32°43' E 152°09'0 0.0
2017-Sep-29 22:58S 32°43' E 152°09'0 0.1
2017-Sep-29 22:28S 32°43' E 152°09'0 0.1
2017-Sep-29 21:58S 32°43' E 152°09'0 0.0
2017-Sep-29 21:28S 32°43' E 152°09'0 0.0
2017-Sep-29 20:58S 32°43' E 152°09'1 1.9
2017-Sep-29 20:30S 32°43' E 152°09'2 3.5
2017-Sep-29 20:00S 32°42' E 152°12'2 4.1
2017-Sep-29 19:30S 32°43' E 152°14'2 4.8
2017-Sep-29 19:00S 32°42' E 152°16'3 5.3
2017-Sep-29 18:30S 32°40' E 152°18'3 5.4
2017-Sep-29 18:00S 32°38' E 152°21'3 5.6
2017-Sep-29 17:30S 32°36' E 152°23'2 4.9
2017-Sep-29 17:00S 32°34' E 152°25'2 3.5
2017-Sep-29 16:30S 32°33' E 152°26'2 4.4
2017-Sep-29 16:00S 32°32' E 152°28'3 4.9
2017-Sep-29 15:30S 32°30' E 152°30'  

Dump ship's entire track history